Time;durP1;ratioP1;P1;durP2;ratioP2;P2;SDS_P1;SDS_P2;PMS_P1;PMS_P2;Temp;Humidity;BMP_temperature;BMP_pressure;BME280_temperature;BME280_humidity;BME280_pressure;Samples;Min_cycle;Max_cycle;Signal;HPM_P1;HPM_P2
2021/01/03 00:00:43;;;;;;;;;2.00;1.00;;;;;;;;5078546;28;8961;-76
2021/01/03 00:03:09;;;;;;;;;2.00;2.00;;;;;;;;5081839;28;11609;-78
2021/01/03 00:05:35;;;;;;;;;1.00;0.00;;;;;;;;5081746;28;8840;-78
2021/01/03 00:08:01;;;;;;;;;1.00;1.00;;;;;;;;5082739;28;8850;-77
2021/01/03 00:10:27;;;;;;;;;2.00;1.00;;;;;;;;5080180;28;9550;-77
2021/01/03 00:12:53;;;;;;;;;0.00;0.00;;;;;;;;5077184;28;8862;-77
2021/01/03 00:15:21;;;;;;;;;0.75;0.75;;;;;;;;5084167;28;9064;-77
2021/01/03 00:17:47;;;;;;;;;0.00;0.00;;;;;;;;5082498;28;11644;-77
2021/01/03 00:20:15;;;;;;;;;1.00;1.00;;;;;;;;5083817;28;11459;-77
2021/01/03 00:22:41;;;;;;;;;0.00;0.00;;;;;;;;5076813;28;11723;-77
2021/01/03 00:25:08;;;;;;;;;1.00;1.00;;;;;;;;5081285;28;11575;-77
2021/01/03 00:27:34;;;;;;;;;1.00;1.00;;;;;;;;5077525;28;8954;-76
2021/01/03 00:30:00;;;;;;;;;2.00;0.00;;;;;;;;5079768;28;11450;-77
2021/01/03 00:32:28;;;;;;;;;3.00;2.25;;;;;;;;5077110;28;12226;-77
2021/01/03 00:34:54;;;;;;;;;0.50;0.00;;;;;;;;5080177;28;11464;-76
2021/01/03 00:37:21;;;;;;;;;0.00;0.00;;;;;;;;5079683;28;11477;-77
2021/01/03 00:39:48;;;;;;;;;0.75;0.75;;;;;;;;5079104;28;9567;-76
2021/01/03 00:42:14;;;;;;;;;1.00;0.00;;;;;;;;5079973;28;11610;-76
2021/01/03 00:44:40;;;;;;;;;1.75;1.00;;;;;;;;5077721;28;12212;-78
2021/01/03 00:47:06;;;;;;;;;1.25;0.00;;;;;;;;5081936;28;8843;-76
2021/01/03 00:49:32;;;;;;;;;0.00;0.00;;;;;;;;5082461;28;8958;-77
2021/01/03 00:51:58;;;;;;;;;2.00;1.00;;;;;;;;5085491;28;8985;-76
2021/01/03 00:54:24;;;;;;;;;2.00;1.00;;;;;;;;5082420;28;11642;-75
2021/01/03 00:56:50;;;;;;;;;1.75;1.00;;;;;;;;5084847;28;8856;-75
2021/01/03 00:59:16;;;;;;;;;1.75;1.00;;;;;;;;5083660;28;9588;-76
2021/01/03 01:01:42;;;;;;;;;1.00;0.00;;;;;;;;5081394;28;9583;-77
2021/01/03 01:04:08;;;;;;;;;1.25;0.75;;;;;;;;5084884;28;9707;-77
2021/01/03 01:06:35;;;;;;;;;1.25;1.00;;;;;;;;5080960;28;8942;-76
2021/01/03 01:09:01;;;;;;;;;1.50;0.25;;;;;;;;5083965;28;8939;-76
2021/01/03 01:11:28;;;;;;;;;1.00;1.00;;;;;;;;5081451;28;11514;-77
2021/01/03 01:13:54;;;;;;;;;0.75;0.75;;;;;;;;5083306;28;8823;-77
2021/01/03 01:16:20;;;;;;;;;1.25;0.50;;;;;;;;5082630;28;11483;-77
2021/01/03 01:18:46;;;;;;;;;1.50;1.00;;;;;;;;5081773;28;9001;-77
2021/01/03 01:21:12;;;;;;;;;0.75;0.75;;;;;;;;5084168;28;8951;-77
2021/01/03 01:23:39;;;;;;;;;1.25;1.25;;;;;;;;5080580;28;8918;-77
2021/01/03 01:26:05;;;;;;;;;2.50;1.00;;;;;;;;5084498;28;11629;-77
2021/01/03 01:28:31;;;;;;;;;0.75;0.75;;;;;;;;5084112;28;11661;-76
2021/01/03 01:30:57;;;;;;;;;0.75;0.00;;;;;;;;5081424;28;8848;-77
2021/01/03 01:33:23;;;;;;;;;1.00;1.00;;;;;;;;5084984;28;8951;-76
2021/01/03 01:35:49;;;;;;;;;2.00;2.00;;;;;;;;5081921;28;11606;-77
2021/01/03 01:38:15;;;;;;;;;2.50;0.25;;;;;;;;5084002;28;11490;-76
2021/01/03 01:40:45;;;;;;;;;1.75;0.25;;;;;;;;5083233;28;11514;-77
2021/01/03 01:43:12;;;;;;;;;1.00;1.00;;;;;;;;5080686;28;8847;-77
2021/01/03 01:45:40;;;;;;;;;1.50;1.50;;;;;;;;5083315;28;11590;-76
2021/01/03 01:48:08;;;;;;;;;3.00;1.00;;;;;;;;5084437;28;11607;-77
2021/01/03 01:50:39;;;;;;;;;0.75;0.50;;;;;;;;5080205;28;11664;-77
2021/01/03 01:53:06;;;;;;;;;1.25;1.00;;;;;;;;5088022;28;11587;-79
2021/01/03 01:55:33;;;;;;;;;3.00;0.00;;;;;;;;5084382;28;11619;-78
2021/01/03 01:58:03;;;;;;;;;1.25;1.00;;;;;;;;5091601;28;11595;-75
2021/01/03 02:00:30;;;;;;;;;1.00;1.00;;;;;;;;5084425;28;11632;-76
2021/01/03 02:03:00;;;;;;;;;0.00;0.00;;;;;;;;5082766;28;11612;-76
2021/01/03 02:05:29;;;;;;;;;2.00;0.00;;;;;;;;5082929;28;11610;-75
2021/01/03 02:07:58;;;;;;;;;1.75;1.75;;;;;;;;5083292;28;11604;-75
2021/01/03 02:10:26;;;;;;;;;1.75;0.75;;;;;;;;5080769;28;11627;-76
2021/01/03 02:13:01;;;;;;;;;1.00;1.00;;;;;;;;5085995;28;11587;-75
2021/01/03 02:15:30;;;;;;;;;1.00;0.00;;;;;;;;5080126;28;11464;-76
2021/01/03 02:17:56;;;;;;;;;0.00;0.00;;;;;;;;5088227;28;11470;-76
2021/01/03 02:20:25;;;;;;;;;2.75;0.25;;;;;;;;5085559;28;11492;-76
2021/01/03 02:22:53;;;;;;;;;1.25;0.25;;;;;;;;5085709;28;11586;-75
2021/01/03 02:25:21;;;;;;;;;1.00;0.00;;;;;;;;5085346;28;11676;-75
2021/01/03 02:27:57;;;;;;;;;2.00;1.00;;;;;;;;5087292;28;11645;-75
2021/01/03 02:30:24;;;;;;;;;0.00;0.00;;;;;;;;5087036;28;11570;-76
2021/01/03 02:33:02;;;;;;;;;0.75;0.50;;;;;;;;5086980;28;11473;-76
2021/01/03 02:35:28;;;;;;;;;1.00;0.75;;;;;;;;5086891;28;11631;-76
2021/01/03 02:37:56;;;;;;;;;0.25;0.25;;;;;;;;5082920;28;11733;-75
2021/01/03 02:40:25;;;;;;;;;1.00;1.00;;;;;;;;5080242;28;11537;-76
2021/01/03 02:42:51;;;;;;;;;0.50;0.50;;;;;;;;5080970;28;11642;-75
2021/01/03 02:45:19;;;;;;;;;1.00;1.00;;;;;;;;5085600;28;11463;-76
2021/01/03 02:47:45;;;;;;;;;0.25;0.25;;;;;;;;5084029;28;11504;-75
2021/01/03 02:50:13;;;;;;;;;2.00;0.50;;;;;;;;5082368;28;11645;-76
2021/01/03 02:52:40;;;;;;;;;1.00;1.00;;;;;;;;5086536;28;11598;-75
2021/01/03 02:55:07;;;;;;;;;0.00;0.00;;;;;;;;5082711;28;12315;-77
2021/01/03 02:57:34;;;;;;;;;0.00;0.00;;;;;;;;5082333;28;11598;-77
2021/01/03 02:59:59;;;;;;;;;1.00;1.00;;;;;;;;5083689;28;11602;-76
2021/01/03 03:02:25;;;;;;;;;0.00;0.00;;;;;;;;5081071;28;11613;-76
2021/01/03 03:04:51;;;;;;;;;1.25;0.00;;;;;;;;5086750;28;8859;-76
2021/01/03 03:07:17;;;;;;;;;0.50;0.00;;;;;;;;5089377;28;8844;-76
2021/01/03 03:09:43;;;;;;;;;0.00;0.00;;;;;;;;5083934;28;8856;-77
2021/01/03 03:12:09;;;;;;;;;1.00;1.00;;;;;;;;5090438;28;11463;-76
2021/01/03 03:14:36;;;;;;;;;1.25;0.50;;;;;;;;5083210;28;8819;-77
2021/01/03 03:17:04;;;;;;;;;0.00;0.00;;;;;;;;5086311;28;8955;-77
2021/01/03 03:19:30;;;;;;;;;1.00;0.00;;;;;;;;5086460;28;11498;-76
2021/01/03 03:21:56;;;;;;;;;1.00;1.00;;;;;;;;5085794;28;11592;-77
2021/01/03 03:24:22;;;;;;;;;0.00;0.00;;;;;;;;5079810;28;8832;-76
2021/01/03 03:26:51;;;;;;;;;3.00;0.00;;;;;;;;5080168;28;11470;-76
2021/01/03 03:29:17;;;;;;;;;0.00;0.00;;;;;;;;5085221;28;8832;-78
2021/01/03 03:31:44;;;;;;;;;0.25;0.25;;;;;;;;5082358;28;11517;-76
2021/01/03 03:34:10;;;;;;;;;1.00;0.75;;;;;;;;5083159;28;9564;-78
2021/01/03 03:36:36;;;;;;;;;1.50;0.50;;;;;;;;5085979;28;11660;-78
2021/01/03 03:39:02;;;;;;;;;0.00;0.00;;;;;;;;5086261;28;8832;-78
2021/01/03 03:41:28;;;;;;;;;1.00;1.00;;;;;;;;5083367;28;8829;-77
2021/01/03 03:43:54;;;;;;;;;0.50;0.50;;;;;;;;5082307;28;11465;-77
2021/01/03 03:46:19;;;;;;;;;2.00;1.00;;;;;;;;5080298;28;8954;-78
2021/01/03 03:48:46;;;;;;;;;0.00;0.00;;;;;;;;5086168;28;8878;-78
2021/01/03 03:51:14;;;;;;;;;1.00;0.75;;;;;;;;5082018;28;9704;-78
2021/01/03 03:53:40;;;;;;;;;1.50;0.00;;;;;;;;5081636;28;12349;-79
2021/01/03 03:56:08;;;;;;;;;1.00;0.00;;;;;;;;5082363;28;11646;-80
2021/01/03 03:58:34;;;;;;;;;0.25;0.00;;;;;;;;5086011;28;8951;-75
2021/01/03 04:01:00;;;;;;;;;1.75;0.50;;;;;;;;5081846;28;11528;-74
2021/01/03 04:03:26;;;;;;;;;1.00;0.00;;;;;;;;5081280;28;8985;-76
2021/01/03 04:05:53;;;;;;;;;2.00;0.75;;;;;;;;5079768;28;8867;-76
2021/01/03 04:08:18;;;;;;;;;0.00;0.00;;;;;;;;5080006;28;8850;-75
2021/01/03 04:10:44;;;;;;;;;1.75;0.75;;;;;;;;5085684;28;11452;-76
2021/01/03 04:13:11;;;;;;;;;1.00;1.00;;;;;;;;5086314;28;8848;-76
2021/01/03 04:15:37;;;;;;;;;0.75;0.75;;;;;;;;5082306;28;8823;-80
2021/01/03 04:18:04;;;;;;;;;1.75;0.75;;;;;;;;5085909;28;11465;-77
2021/01/03 04:20:30;;;;;;;;;0.00;0.00;;;;;;;;5085410;28;11509;-76
2021/01/03 04:22:57;;;;;;;;;2.75;0.75;;;;;;;;5085740;28;11620;-78
2021/01/03 04:25:23;;;;;;;;;1.00;1.00;;;;;;;;5087178;28;8937;-77
2021/01/03 04:27:51;;;;;;;;;1.00;0.50;;;;;;;;5090741;28;11595;-77
2021/01/03 04:30:20;;;;;;;;;1.50;0.00;;;;;;;;5083371;28;12221;-77
2021/01/03 04:32:46;;;;;;;;;0.00;0.00;;;;;;;;5089642;28;11749;-76
2021/01/03 04:35:12;;;;;;;;;0.00;0.00;;;;;;;;5089029;28;11594;-77
2021/01/03 04:37:38;;;;;;;;;0.00;0.00;;;;;;;;5081893;28;11595;-77
2021/01/03 04:40:06;;;;;;;;;2.75;1.00;;;;;;;;5085645;28;11607;-77
2021/01/03 04:42:33;;;;;;;;;1.00;0.00;;;;;;;;5087450;28;8931;-77
2021/01/03 04:45:00;;;;;;;;;1.00;1.00;;;;;;;;5087190;28;11512;-75
2021/01/03 04:47:27;;;;;;;;;0.00;0.00;;;;;;;;5084224;28;11476;-76
2021/01/03 04:49:57;;;;;;;;;0.00;0.00;;;;;;;;5090992;28;11600;-76
2021/01/03 04:52:41;;;;;;;;;0.50;0.50;;;;;;;;5091071;28;11599;-77
2021/01/03 04:55:15;;;;;;;;;0.00;0.00;;;;;;;;5081600;28;11656;-76
2021/01/03 04:57:49;;;;;;;;;1.00;0.00;;;;;;;;5081653;28;11661;-77
2021/01/03 05:00:16;;;;;;;;;0.00;0.00;;;;;;;;5089112;28;11614;-77
2021/01/03 05:03:14;;;;;;;;;1.50;1.00;;;;;;;;5083887;28;11469;-78
2021/01/03 05:05:45;;;;;;;;;2.00;1.00;;;;;;;;5084863;28;11491;-76
2021/01/03 05:08:20;;;;;;;;;1.75;1.00;;;;;;;;5088896;28;11609;-77
2021/01/03 05:10:47;;;;;;;;;1.50;0.25;;;;;;;;5084428;28;11617;-77
2021/01/03 05:13:28;;;;;;;;;0.00;0.00;;;;;;;;5084787;28;11467;-76
2021/01/03 05:15:54;;;;;;;;;2.00;1.00;;;;;;;;5086280;28;11479;-78
2021/01/03 05:18:20;;;;;;;;;0.25;0.00;;;;;;;;5085161;28;11477;-79
2021/01/03 05:20:52;;;;;;;;;0.75;0.75;;;;;;;;5086487;28;8832;-76
2021/01/03 05:23:19;;;;;;;;;1.00;1.00;;;;;;;;5088349;28;8840;-76
2021/01/03 05:25:46;;;;;;;;;1.00;0.75;;;;;;;;5084476;28;11507;-77
2021/01/03 05:28:14;;;;;;;;;0.50;0.25;;;;;;;;5084547;28;11611;-76
2021/01/03 05:30:40;;;;;;;;;1.00;0.25;;;;;;;;5088175;28;11607;-76
2021/01/03 05:33:08;;;;;;;;;1.00;1.00;;;;;;;;5085209;28;11556;-75
2021/01/03 05:35:36;;;;;;;;;0.75;0.75;;;;;;;;5076610;28;8949;-75
2021/01/03 05:38:02;;;;;;;;;1.00;1.00;;;;;;;;5088860;28;11607;-76
2021/01/03 05:40:30;;;;;;;;;1.00;1.00;;;;;;;;5081156;28;11480;-75
2021/01/03 05:43:17;;;;;;;;;1.00;1.00;;;;;;;;5081756;28;11585;-75
2021/01/03 05:46:03;;;;;;;;;0.25;0.00;;;;;;;;5084672;28;11495;-79
2021/01/03 05:48:33;;;;;;;;;2.00;0.25;;;;;;;;5083945;28;11611;-78
2021/01/03 05:50:59;;;;;;;;;2.00;0.33;;;;;;;;5088793;28;12362;-86
2021/01/03 05:53:26;;;;;;;;;1.00;1.00;;;;;;;;5083708;28;11593;-83
2021/01/03 05:55:54;;;;;;;;;1.67;0.33;;;;;;;;5088504;28;11491;-85
2021/01/03 05:58:23;;;;;;;;;2.00;0.00;;;;;;;;5084058;28;11587;-86
2021/01/03 06:00:52;;;;;;;;;1.00;1.00;;;;;;;;5082314;28;11592;-81
2021/01/03 06:03:23;;;;;;;;;1.00;1.00;;;;;;;;5085823;28;11610;-82
2021/01/03 06:05:50;;;;;;;;;0.75;0.75;;;;;;;;5086299;28;11583;-83
2021/01/03 06:08:18;;;;;;;;;1.00;1.00;;;;;;;;5085256;28;11607;-82
2021/01/03 06:10:44;;;;;;;;;0.00;0.00;;;;;;;;5082879;28;11673;-84
2021/01/03 06:13:10;;;;;;;;;1.67;1.00;;;;;;;;5084129;28;11448;-83
2021/01/03 06:15:43;;;;;;;;;0.50;0.00;;;;;;;;5083512;28;8824;-84
2021/01/03 06:18:13;;;;;;;;;0.00;0.00;;;;;;;;5083970;28;11614;-83
2021/01/03 07:36:22;;;;;;;;;0.00;0.00;;;;;;;;5128827;27;13373;-89
2021/01/03 07:39:09;;;;;;;;;0.00;0.00;;;;;;;;5110497;28;8951;-89
2021/01/03 10:26:28;;;;;;;;;0.50;0.50;;;;;;;;5116728;27;13464;-72
2021/01/03 10:28:55;;;;;;;;;0.00;0.00;;;;;;;;5095525;28;8974;-75
2021/01/03 10:31:21;;;;;;;;;0.00;0.00;;;;;;;;5097505;28;11501;-73
2021/01/03 10:33:49;;;;;;;;;2.00;0.00;;;;;;;;5097959;28;11488;-73
2021/01/03 10:36:16;;;;;;;;;2.00;0.50;;;;;;;;5097457;28;11480;-75
2021/01/03 10:38:42;;;;;;;;;0.00;0.00;;;;;;;;5099963;28;11607;-74
2021/01/03 10:41:08;;;;;;;;;1.00;1.00;;;;;;;;5106347;28;11507;-85
2021/01/03 10:43:34;;;;;;;;;0.00;0.00;;;;;;;;5115164;28;8937;-86
2021/01/03 10:46:00;;;;;;;;;0.00;0.00;;;;;;;;5115780;28;8815;-85
2021/01/03 10:48:26;;;;;;;;;1.00;1.00;;;;;;;;5120844;28;11522;-84
2021/01/03 10:50:52;;;;;;;;;0.75;0.75;;;;;;;;5117598;28;8832;-83
2021/01/03 10:53:18;;;;;;;;;0.00;0.00;;;;;;;;5117811;28;8860;-84
2021/01/03 10:55:47;;;;;;;;;0.00;0.00;;;;;;;;5117539;28;8896;-84
2021/01/03 10:58:13;;;;;;;;;2.00;1.00;;;;;;;;5104989;28;8858;-84
2021/01/03 11:00:40;;;;;;;;;0.00;0.00;;;;;;;;5098197;28;11489;-84
2021/01/03 11:03:06;;;;;;;;;0.75;0.75;;;;;;;;5095098;28;11505;-84
2021/01/03 11:05:32;;;;;;;;;0.50;0.50;;;;;;;;5094979;28;11698;-84
2021/01/03 11:07:59;;;;;;;;;0.00;0.00;;;;;;;;5097906;28;8901;-84
2021/01/03 11:10:25;;;;;;;;;0.00;0.00;;;;;;;;5096850;28;8850;-85
2021/01/03 11:12:51;;;;;;;;;0.00;0.00;;;;;;;;5096934;28;11687;-86
2021/01/03 11:15:17;;;;;;;;;1.50;1.00;;;;;;;;5098545;28;8850;-86
2021/01/03 11:17:44;;;;;;;;;0.00;0.00;;;;;;;;5100477;28;8832;-85
2021/01/03 11:20:10;;;;;;;;;2.25;1.00;;;;;;;;5100460;28;8962;-84
2021/01/03 11:22:36;;;;;;;;;1.50;0.25;;;;;;;;5096814;28;11531;-84
2021/01/03 11:25:02;;;;;;;;;2.00;0.00;;;;;;;;5095802;28;11507;-84
2021/01/03 11:27:28;;;;;;;;;1.25;0.00;;;;;;;;5099822;28;8939;-83
2021/01/03 11:29:54;;;;;;;;;0.00;0.00;;;;;;;;5097631;28;12229;-84
2021/01/03 11:32:22;;;;;;;;;0.25;0.00;;;;;;;;5098647;28;8873;-83
2021/01/03 11:34:49;;;;;;;;;3.00;1.00;;;;;;;;5097839;28;8832;-84
2021/01/03 11:37:17;;;;;;;;;0.00;0.00;;;;;;;;5087486;28;11589;-83
2021/01/03 11:39:43;;;;;;;;;0.50;0.50;;;;;;;;5084652;28;11583;-83
2021/01/03 11:42:12;;;;;;;;;1.00;1.00;;;;;;;;5086695;28;11599;-83
2021/01/03 11:44:38;;;;;;;;;1.00;1.00;;;;;;;;5086885;28;8963;-82
2021/01/03 11:47:05;;;;;;;;;1.00;1.00;;;;;;;;5082302;28;11601;-84
2021/01/03 11:49:32;;;;;;;;;0.00;0.00;;;;;;;;5082167;28;11485;-83
2021/01/03 11:51:59;;;;;;;;;1.00;0.00;;;;;;;;5085189;28;11468;-83
2021/01/03 11:54:25;;;;;;;;;0.75;0.75;;;;;;;;5079798;28;11481;-83
2021/01/03 11:56:52;;;;;;;;;0.50;0.00;;;;;;;;5084370;28;12345;-79
2021/01/03 11:59:18;;;;;;;;;1.00;1.00;;;;;;;;5082920;28;8843;-80
2021/01/03 12:01:44;;;;;;;;;0.00;0.00;;;;;;;;5082630;28;11494;-76
2021/01/03 12:04:10;;;;;;;;;0.00;0.00;;;;;;;;5083072;28;8852;-75
2021/01/03 12:06:38;;;;;;;;;0.00;0.00;;;;;;;;5080878;28;8857;-81
2021/01/03 12:09:05;;;;;;;;;0.50;0.50;;;;;;;;5080151;28;8847;-77
2021/01/03 12:11:31;;;;;;;;;1.50;0.00;;;;;;;;5083876;28;11577;-76
2021/01/03 12:13:59;;;;;;;;;1.00;1.00;;;;;;;;5080344;28;11472;-75
2021/01/03 12:16:26;;;;;;;;;0.75;0.00;;;;;;;;5083228;28;8921;-76
2021/01/03 12:18:53;;;;;;;;;3.00;1.00;;;;;;;;5080820;28;11568;-75
2021/01/03 12:21:23;;;;;;;;;0.50;0.00;;;;;;;;5082498;28;11603;-77
2021/01/03 12:23:49;;;;;;;;;0.25;0.25;;;;;;;;5081149;28;11594;-76
2021/01/03 12:26:15;;;;;;;;;1.00;1.00;;;;;;;;5081269;28;11595;-75
2021/01/03 12:28:41;;;;;;;;;1.00;1.00;;;;;;;;5082701;28;8958;-76
2021/01/03 12:31:07;;;;;;;;;1.50;1.50;;;;;;;;5080557;28;11568;-75
2021/01/03 12:33:33;;;;;;;;;2.25;1.75;;;;;;;;5079317;28;8953;-77
2021/01/03 12:35:59;;;;;;;;;2.00;1.00;;;;;;;;5079691;28;11639;-76
2021/01/03 12:38:25;;;;;;;;;0.50;0.50;;;;;;;;5077020;28;8906;-73
2021/01/03 12:40:51;;;;;;;;;2.50;2.00;;;;;;;;5080570;28;10946;-75
2021/01/03 12:43:18;;;;;;;;;2.00;2.00;;;;;;;;5079895;28;8882;-73
2021/01/03 12:45:44;;;;;;;;;2.50;1.50;;;;;;;;5079008;28;11635;-76
2021/01/03 12:48:10;;;;;;;;;0.00;0.00;;;;;;;;5082107;28;11478;-78
2021/01/03 12:50:36;;;;;;;;;1.25;1.25;;;;;;;;5078931;28;9021;-92
2021/01/03 12:53:02;;;;;;;;;1.50;1.00;;;;;;;;5080383;28;11480;-86
2021/01/03 12:55:28;;;;;;;;;1.00;0.75;;;;;;;;5010048;28;10407;-87
2021/01/03 12:57:54;;;;;;;;;5.25;1.00;;;;;;;;5039616;28;11653;-74
2021/01/03 13:00:21;;;;;;;;;0.00;0.00;;;;;;;;5040987;28;8972;-75
2021/01/03 13:02:50;;;;;;;;;0.75;0.75;;;;;;;;5040067;28;11605;-76
2021/01/03 13:05:17;;;;;;;;;1.00;1.00;;;;;;;;5037117;28;11617;-83
2021/01/03 13:07:42;;;;;;;;;2.75;2.75;;;;;;;;5037758;28;11748;-75
2021/01/03 13:10:09;;;;;;;;;2.00;2.00;;;;;;;;5040996;28;11515;-75
2021/01/03 13:12:35;;;;;;;;;1.50;1.00;;;;;;;;5039532;28;8846;-72
2021/01/03 13:15:01;;;;;;;;;0.25;0.25;;;;;;;;5038090;28;11637;-70
2021/01/03 13:17:28;;;;;;;;;2.75;1.50;;;;;;;;5037259;28;8860;-68
2021/01/03 13:19:54;;;;;;;;;1.00;1.00;;;;;;;;5039510;28;9002;-69
2021/01/03 13:22:19;;;;;;;;;1.00;1.00;;;;;;;;5042217;28;11523;-69
2021/01/03 13:24:45;;;;;;;;;1.50;1.00;;;;;;;;5038346;28;8832;-69
2021/01/03 13:27:11;;;;;;;;;3.00;2.75;;;;;;;;5037301;28;8868;-69
2021/01/03 13:29:38;;;;;;;;;3.00;3.00;;;;;;;;5040219;28;8870;-69
2021/01/03 13:32:05;;;;;;;;;4.00;4.00;;;;;;;;5037020;28;11809;-69
2021/01/03 13:34:32;;;;;;;;;2.00;2.00;;;;;;;;5035407;28;11652;-77
2021/01/03 13:36:58;;;;;;;;;2.25;2.25;;;;;;;;5037934;28;11621;-75
2021/01/03 13:39:24;;;;;;;;;0.50;0.00;;;;;;;;5040726;28;11688;-81
2021/01/03 13:41:50;;;;;;;;;6.00;3.00;;;;;;;;5039491;28;8853;-79
2021/01/03 13:44:16;;;;;;;;;2.00;2.00;;;;;;;;5040389;28;11686;-76
2021/01/03 13:46:42;;;;;;;;;4.25;4.25;;;;;;;;5036575;23;11605;-74
2021/01/03 13:49:09;;;;;;;;;4.25;2.00;;;;;;;;4962223;28;8875;-75
2021/01/03 13:51:36;;;;;;;;;1.75;1.75;;;;;;;;4959395;28;8854;-72
2021/01/03 13:54:02;;;;;;;;;6.00;2.75;;;;;;;;4963454;28;11690;-73
2021/01/03 13:56:29;;;;;;;;;3.00;3.00;;;;;;;;4958840;28;11605;-73
2021/01/03 13:58:55;;;;;;;;;6.75;3.00;;;;;;;;4958917;28;11662;-73
2021/01/03 14:01:26;;;;;;;;;3.00;3.00;;;;;;;;4960787;28;11597;-75
2021/01/03 14:03:52;;;;;;;;;2.00;2.00;;;;;;;;4962483;28;8981;-74
2021/01/03 14:06:17;;;;;;;;;10.75;7.00;;;;;;;;4961589;28;11525;-74
2021/01/03 14:08:44;;;;;;;;;2.00;2.00;;;;;;;;4960081;28;8878;-73
2021/01/03 14:11:10;;;;;;;;;2.25;1.00;;;;;;;;4962616;28;8824;-74
2021/01/03 14:13:36;;;;;;;;;2.50;2.50;;;;;;;;4960807;28;11683;-75
2021/01/03 14:16:02;;;;;;;;;1.00;1.00;;;;;;;;4963495;28;8871;-74
2021/01/03 14:18:28;;;;;;;;;2.00;1.00;;;;;;;;4960430;28;8963;-73
2021/01/03 14:20:54;;;;;;;;;2.00;1.75;;;;;;;;4962920;28;8863;-73
2021/01/03 14:23:20;;;;;;;;;1.00;1.00;;;;;;;;4961201;28;8888;-75
2021/01/03 14:25:46;;;;;;;;;0.50;0.50;;;;;;;;4961897;28;8881;-76
2021/01/03 14:28:12;;;;;;;;;1.75;1.75;;;;;;;;4962475;28;8978;-73
2021/01/03 14:30:38;;;;;;;;;1.75;1.75;;;;;;;;4961084;28;11558;-71
2021/01/03 14:33:06;;;;;;;;;1.25;1.25;;;;;;;;4960819;28;8962;-69
2021/01/03 14:35:33;;;;;;;;;2.00;0.75;;;;;;;;4959742;28;9124;-69
2021/01/03 14:38:00;;;;;;;;;1.00;0.50;;;;;;;;4959650;28;11710;-69
2021/01/03 14:40:27;;;;;;;;;1.00;1.00;;;;;;;;4965842;28;11535;-70
2021/01/03 14:42:56;;;;;;;;;3.00;2.00;;;;;;;;4961686;28;11669;-70
2021/01/03 14:45:24;;;;;;;;;6.00;3.00;;;;;;;;4960621;28;11562;-69
2021/01/03 14:47:52;;;;;;;;;3.00;2.00;;;;;;;;4957173;28;11587;-69
2021/01/03 14:50:26;;;;;;;;;2.00;2.00;;;;;;;;4962221;28;11705;-69
2021/01/03 14:52:59;;;;;;;;;5.25;2.50;;;;;;;;4961440;28;11734;-69
2021/01/03 14:55:30;;;;;;;;;3.00;3.00;;;;;;;;4958621;28;11579;-69
2021/01/03 14:57:58;;;;;;;;;2.75;2.75;;;;;;;;4960999;28;11658;-69
2021/01/03 15:00:24;;;;;;;;;3.75;2.50;;;;;;;;4960058;28;11657;-68
2021/01/03 15:03:00;;;;;;;;;2.00;2.00;;;;;;;;4960351;28;11689;-68
2021/01/03 15:05:28;;;;;;;;;2.00;2.00;;;;;;;;4961836;28;11704;-72
2021/01/03 15:07:57;;;;;;;;;2.00;2.00;;;;;;;;4961190;28;11685;-68
2021/01/03 15:10:23;;;;;;;;;2.50;2.50;;;;;;;;4959966;28;11695;-70
2021/01/03 15:12:49;;;;;;;;;2.75;2.25;;;;;;;;4964244;28;12378;-69
2021/01/03 15:15:25;;;;;;;;;3.00;3.00;;;;;;;;4963765;28;11599;-69
2021/01/03 15:17:54;;;;;;;;;4.00;2.00;;;;;;;;4963878;28;9062;-70
2021/01/03 15:20:23;;;;;;;;;1.75;0.50;;;;;;;;4965576;28;11623;-71
2021/01/03 15:22:52;;;;;;;;;4.00;3.00;;;;;;;;4964834;28;11692;-69
2021/01/03 15:25:21;;;;;;;;;3.00;2.25;;;;;;;;4965014;28;11622;-70
2021/01/03 15:27:48;;;;;;;;;3.75;2.00;;;;;;;;4966320;28;11712;-72
2021/01/03 15:30:15;;;;;;;;;3.75;2.75;;;;;;;;4963269;28;11586;-73
2021/01/03 15:32:46;;;;;;;;;2.00;2.00;;;;;;;;4963504;28;11684;-72
2021/01/03 15:35:15;;;;;;;;;3.50;3.00;;;;;;;;4960584;28;11569;-72
2021/01/03 15:37:43;;;;;;;;;3.00;3.00;;;;;;;;4965627;28;12402;-75
2021/01/03 15:40:10;;;;;;;;;2.75;2.75;;;;;;;;4964348;28;11685;-73
2021/01/03 15:42:41;;;;;;;;;3.75;3.25;;;;;;;;4963442;28;11591;-74
2021/01/03 15:45:11;;;;;;;;;4.00;2.00;;;;;;;;4962146;28;11656;-71
2021/01/03 15:47:39;;;;;;;;;3.00;3.00;;;;;;;;4962476;28;11585;-73
2021/01/03 15:50:07;;;;;;;;;3.00;3.00;;;;;;;;4963827;28;11569;-73
2021/01/03 15:52:35;;;;;;;;;5.50;3.75;;;;;;;;4965099;28;12392;-72
2021/01/03 15:55:01;;;;;;;;;3.00;3.00;;;;;;;;4963953;28;11553;-72
2021/01/03 15:57:32;;;;;;;;;3.00;3.00;;;;;;;;4964589;28;11573;-73
2021/01/03 15:59:59;;;;;;;;;5.25;3.25;;;;;;;;4964598;28;8836;-71
2021/01/03 16:02:24;;;;;;;;;5.50;5.00;;;;;;;;4963645;28;11642;-72
2021/01/03 16:04:50;;;;;;;;;7.75;4.50;;;;;;;;4964613;28;11580;-71
2021/01/03 16:07:17;;;;;;;;;4.50;4.00;;;;;;;;4964953;28;8950;-72
2021/01/03 16:09:43;;;;;;;;;3.00;3.00;;;;;;;;4964004;28;8848;-72
2021/01/03 16:12:09;;;;;;;;;4.50;4.50;;;;;;;;4963874;28;12328;-72
2021/01/03 16:14:35;;;;;;;;;4.00;4.00;;;;;;;;4962195;28;8990;-73
2021/01/03 16:17:04;;;;;;;;;5.00;4.00;;;;;;;;4963503;28;12440;-72
2021/01/03 16:19:36;;;;;;;;;2.50;2.50;;;;;;;;4964723;28;8859;-72
2021/01/03 16:22:15;;;;;;;;;4.50;3.75;;;;;;;;4963552;28;11598;-73
2021/01/03 16:24:45;;;;;;;;;5.25;4.00;;;;;;;;4961396;28;11783;-74
2021/01/03 16:27:14;;;;;;;;;7.50;6.00;;;;;;;;4963308;28;11563;-72
2021/01/03 16:29:49;;;;;;;;;7.00;7.00;;;;;;;;4964623;28;11730;-73
2021/01/03 16:32:22;;;;;;;;;4.75;4.75;;;;;;;;4963304;28;11711;-72
2021/01/03 16:35:03;;;;;;;;;3.50;3.50;;;;;;;;4963536;28;12312;-71
2021/01/03 16:37:32;;;;;;;;;3.75;3.00;;;;;;;;4955323;28;11662;-72
2021/01/03 16:40:05;;;;;;;;;2.25;2.25;;;;;;;;4964267;28;11767;-72
2021/01/03 16:42:39;;;;;;;;;11.00;8.00;;;;;;;;4965402;28;12337;-73
2021/01/03 16:45:09;;;;;;;;;7.50;7.50;;;;;;;;4961904;28;11693;-72
2021/01/03 16:47:45;;;;;;;;;6.00;6.00;;;;;;;;4962561;28;11635;-73
2021/01/03 16:50:14;;;;;;;;;4.00;4.00;;;;;;;;4964501;28;11719;-81
2021/01/03 16:52:42;;;;;;;;;7.50;7.00;;;;;;;;4961516;28;11591;-72
2021/01/03 16:55:13;;;;;;;;;8.00;5.50;;;;;;;;4961461;28;11795;-72
2021/01/03 16:57:47;;;;;;;;;7.75;6.00;;;;;;;;4962442;28;11557;-72
2021/01/03 17:00:21;;;;;;;;;13.50;11.75;;;;;;;;4943533;28;11570;-73
2021/01/03 17:02:49;;;;;;;;;16.75;14.00;;;;;;;;4940451;28;11717;-71
2021/01/03 17:05:17;;;;;;;;;8.75;7.00;;;;;;;;4941908;28;11666;-71
2021/01/03 17:07:47;;;;;;;;;12.50;11.25;;;;;;;;4940031;28;11609;-71
2021/01/03 17:10:21;;;;;;;;;8.00;7.00;;;;;;;;4938897;28;11659;-71
2021/01/03 17:12:59;;;;;;;;;6.00;4.00;;;;;;;;4938184;28;11824;-72
2021/01/03 17:15:34;;;;;;;;;3.25;2.75;;;;;;;;4941745;28;11561;-72
2021/01/03 17:18:02;;;;;;;;;0.00;0.00;;;;;;;;4940479;28;12469;-71
2021/01/03 17:20:36;;;;;;;;;1.00;1.00;;;;;;;;4939896;28;11688;-72
2021/01/03 17:23:10;;;;;;;;;2.00;1.00;;;;;;;;4938611;28;12398;-72
2021/01/03 17:25:46;;;;;;;;;0.00;0.00;;;;;;;;4942672;28;11756;-71
2021/01/03 17:28:32;;;;;;;;;0.00;0.00;;;;;;;;4942403;28;11701;-72
2021/01/03 17:31:11;;;;;;;;;2.25;1.00;;;;;;;;4941060;28;11707;-71
2021/01/03 17:33:47;;;;;;;;;0.75;0.50;;;;;;;;4942311;28;11742;-71
2021/01/03 17:36:22;;;;;;;;;1.00;1.00;;;;;;;;4941340;28;11570;-71
2021/01/03 17:38:49;;;;;;;;;0.00;0.00;;;;;;;;4940066;28;11600;-73
2021/01/03 17:41:28;;;;;;;;;4.00;0.75;;;;;;;;4942067;28;11708;-75
2021/01/03 17:43:58;;;;;;;;;0.00;0.00;;;;;;;;4943747;28;11661;-77
2021/01/03 17:46:27;;;;;;;;;1.00;0.50;;;;;;;;4944377;28;11693;-78
2021/01/03 17:48:57;;;;;;;;;1.00;0.00;;;;;;;;4941705;29;12391;-72
2021/01/03 17:51:24;;;;;;;;;0.00;0.00;;;;;;;;4942819;28;11642;-71
2021/01/03 17:53:52;;;;;;;;;0.00;0.00;;;;;;;;4941342;28;11694;-71
2021/01/03 17:56:18;;;;;;;;;1.00;1.00;;;;;;;;4942130;28;11595;-75
2021/01/03 17:58:44;;;;;;;;;0.00;0.00;;;;;;;;4940775;28;11724;-77
2021/01/03 18:01:10;;;;;;;;;0.00;0.00;;;;;;;;4941328;28;8903;-73
2021/01/03 18:03:36;;;;;;;;;1.50;0.00;;;;;;;;4942834;28;11582;-76
2021/01/03 18:06:03;;;;;;;;;1.00;0.00;;;;;;;;4942983;28;8843;-75
2021/01/03 18:08:29;;;;;;;;;0.00;0.00;;;;;;;;4940220;29;8912;-73
2021/01/03 18:10:55;;;;;;;;;0.00;0.00;;;;;;;;4942360;28;11671;-72
2021/01/03 18:13:21;;;;;;;;;1.00;0.00;;;;;;;;4941042;29;8829;-75
2021/01/03 18:15:52;;;;;;;;;2.00;0.25;;;;;;;;4941939;28;8869;-75
2021/01/03 18:18:18;;;;;;;;;1.00;1.00;;;;;;;;4938329;28;8865;-72
2021/01/03 18:20:44;;;;;;;;;4.25;4.00;;;;;;;;4938301;28;11605;-79
2021/01/03 18:23:10;;;;;;;;;1.00;1.00;;;;;;;;4940370;28;8908;-78
2021/01/03 18:25:36;;;;;;;;;1.75;0.75;;;;;;;;4939971;28;12424;-74
2021/01/03 18:28:02;;;;;;;;;0.00;0.00;;;;;;;;4940841;29;8886;-77
2021/01/03 18:30:30;;;;;;;;;0.00;0.00;;;;;;;;4946512;28;11590;-84
2021/01/03 18:32:57;;;;;;;;;2.00;1.00;;;;;;;;4938580;28;11586;-73
2021/01/03 18:35:24;;;;;;;;;1.00;1.00;;;;;;;;4944646;29;11714;-73
2021/01/03 18:37:50;;;;;;;;;1.00;1.00;;;;;;;;4937966;29;11573;-75
2021/01/03 18:40:17;;;;;;;;;2.25;2.25;;;;;;;;4938654;29;11708;-76
2021/01/03 18:42:43;;;;;;;;;7.00;5.50;;;;;;;;4938978;29;11597;-78
2021/01/03 18:45:10;;;;;;;;;4.50;3.00;;;;;;;;4950968;28;11685;-82
2021/01/03 18:47:36;;;;;;;;;3.25;3.25;;;;;;;;4966987;28;12433;-83
2021/01/03 18:50:04;;;;;;;;;1.00;1.00;;;;;;;;4961639;28;11690;-80
2021/01/03 18:52:29;;;;;;;;;1.00;1.00;;;;;;;;4966299;28;11682;-83